createdAt,value
2023-02-09T00:27:16.378Z,14.00
2023-02-09T00:29:47.993Z,19.00
2023-02-09T00:32:20.063Z,15.70
2023-02-09T00:34:47.823Z,20.40
2023-02-09T00:37:15.879Z,18.60
2023-02-09T00:39:46.223Z,15.00
2023-02-09T00:42:16.136Z,17.80
2023-02-09T00:44:43.881Z,22.90
2023-02-09T00:47:15.443Z,32.70
2023-02-09T00:49:43.511Z,47.30
2023-02-09T00:52:11.183Z,44.40
2023-02-09T00:54:39.658Z,27.00
2023-02-09T00:57:07.427Z,28.20
2023-02-09T00:59:38.434Z,20.80
2023-02-09T01:02:06.327Z,21.20
2023-02-09T01:04:35.291Z,19.50
2023-02-09T01:07:03.103Z,23.90
2023-02-09T01:09:32.278Z,25.50
2023-02-09T01:12:02.191Z,47.40
2023-02-09T01:14:32.759Z,48.00
2023-02-09T01:17:00.612Z,48.80
2023-02-09T01:19:29.398Z,39.30
2023-02-09T01:21:57.141Z,32.10
2023-02-09T01:24:24.690Z,23.50
2023-02-09T01:26:56.989Z,19.50
2023-02-09T01:29:25.658Z,18.60
2023-02-09T01:31:55.976Z,18.70
2023-02-09T01:34:24.254Z,21.10
2023-02-09T01:36:52.123Z,18.30
2023-02-09T01:39:20.973Z,19.00
2023-02-09T01:41:50.020Z,18.60
2023-02-09T01:44:22.895Z,18.90
2023-02-09T01:46:54.040Z,17.20
2023-02-09T01:49:25.925Z,15.00
2023-02-09T01:52:02.956Z,15.90
2023-02-09T01:54:55.390Z,16.90
2023-02-09T01:57:49.889Z,17.00
2023-02-09T02:00:19.743Z,15.50
2023-02-09T02:02:51.732Z,17.30
2023-02-09T02:05:20.063Z,14.30
2023-02-09T02:08:25.942Z,16.30
2023-02-09T02:10:57.184Z,15.10
2023-02-09T02:13:25.359Z,15.50
2023-02-09T02:16:15.142Z,16.90
2023-02-09T02:18:47.398Z,14.50
2023-02-09T02:21:55.326Z,17.60
2023-02-09T02:24:47.836Z,14.40
2023-02-09T02:27:44.997Z,14.00
2023-02-09T02:30:32.054Z,15.30
2023-02-09T02:33:37.255Z,15.80
2023-02-09T02:37:01.292Z,14.40
2023-02-09T02:39:55.116Z,16.20
2023-02-09T02:42:51.459Z,14.40
2023-02-09T02:45:51.709Z,16.20
2023-02-09T02:48:19.560Z,14.80
2023-02-09T02:51:08.341Z,15.10
2023-02-09T02:53:41.592Z,12.50
2023-02-09T02:56:22.161Z,16.20
2023-02-09T02:58:52.474Z,15.10
2023-02-09T03:01:22.644Z,14.50
2023-02-09T03:03:51.915Z,13.70
2023-02-09T03:06:20.177Z,15.30
2023-02-09T03:08:58.280Z,14.00
2023-02-09T03:11:31.679Z,16.00
2023-02-09T03:14:11.956Z,14.60
2023-02-09T03:16:48.323Z,15.10
2023-02-09T03:19:52.484Z,13.50
2023-02-09T03:22:37.591Z,13.20
2023-02-09T03:25:26.364Z,12.10
2023-02-09T03:28:17.102Z,12.20
2023-02-09T03:30:46.378Z,14.20
2023-02-09T03:33:21.064Z,14.70
2023-02-09T03:35:52.625Z,14.40
2023-02-09T03:38:23.057Z,15.30
2023-02-09T03:40:51.022Z,15.30
2023-02-09T03:43:20.944Z,16.60
2023-02-09T03:45:49.029Z,14.00
2023-02-09T03:48:16.882Z,14.80
2023-02-09T03:50:44.946Z,15.30
2023-02-09T03:53:14.524Z,15.30
2023-02-09T03:55:42.741Z,14.10
2023-02-09T03:58:10.804Z,13.70
2023-02-09T04:00:39.780Z,16.00
2023-02-09T04:03:07.690Z,14.20
2023-02-09T04:05:38.220Z,14.50
2023-02-09T04:08:07.499Z,15.20
2023-02-09T04:10:36.684Z,16.60
2023-02-09T04:13:04.650Z,17.10
2023-02-09T04:15:32.739Z,16.20
2023-02-09T04:18:02.385Z,20.60
2023-02-09T04:20:30.229Z,15.40
2023-02-09T04:22:57.969Z,16.50
2023-02-09T04:25:27.258Z,16.40
2023-02-09T04:27:55.114Z,17.90
2023-02-09T04:30:23.217Z,18.80
2023-02-09T04:32:52.110Z,19.70
2023-02-09T04:35:20.068Z,19.40
2023-02-09T04:37:49.268Z,19.60
2023-02-09T04:40:20.619Z,17.90
2023-02-09T04:42:52.685Z,17.70
2023-02-09T04:45:20.581Z,17.70
2023-02-09T04:47:49.033Z,17.40
2023-02-09T04:50:17.930Z,15.70
2023-02-09T04:52:45.888Z,16.60
2023-02-09T04:55:20.043Z,15.40
2023-02-09T04:58:11.534Z,17.50
2023-02-09T05:00:39.736Z,16.80
2023-02-09T05:03:07.606Z,15.80
2023-02-09T05:05:40.082Z,16.30
2023-02-09T05:08:08.333Z,18.70
2023-02-09T05:10:36.380Z,18.40
2023-02-09T05:13:05.940Z,21.00
2023-02-09T05:15:34.806Z,20.80
2023-02-09T05:18:04.584Z,19.20
2023-02-09T05:20:34.405Z,20.70
2023-02-09T05:23:07.494Z,23.20
2023-02-09T05:25:36.989Z,24.80
2023-02-09T05:28:12.663Z,28.60
2023-02-09T05:30:44.464Z,29.50
2023-02-09T05:33:13.806Z,30.50
2023-02-09T05:35:41.808Z,33.10
2023-02-09T05:38:12.108Z,33.50
2023-02-09T05:40:41.249Z,27.60
2023-02-09T05:43:10.267Z,34.00
2023-02-09T05:45:39.062Z,33.40
2023-02-09T05:48:10.056Z,37.10
2023-02-09T05:50:39.859Z,39.00
2023-02-09T05:53:09.672Z,40.20
2023-02-09T05:55:39.694Z,44.90
2023-02-09T05:58:08.956Z,44.90
2023-02-09T06:00:38.869Z,43.20
2023-02-09T06:03:08.202Z,46.80
2023-02-09T06:05:40.986Z,46.60
2023-02-09T06:08:09.963Z,54.40
2023-02-09T06:10:38.330Z,65.60
2023-02-09T06:13:07.550Z,66.70
2023-02-09T06:15:38.203Z,68.80
2023-02-09T06:18:08.898Z,78.30
2023-02-09T06:20:36.747Z,63.00
2023-02-09T06:23:05.135Z,52.90
2023-02-09T06:25:33.436Z,51.30
2023-02-09T06:28:04.336Z,53.90
2023-02-09T06:33:01.877Z,53.70
2023-02-09T06:35:31.174Z,55.60
2023-02-09T06:38:00.011Z,54.40
2023-02-09T06:40:28.432Z,54.70
2023-02-09T06:42:57.180Z,54.70
2023-02-09T06:45:25.190Z,48.20
2023-02-09T06:47:53.533Z,52.50
2023-02-09T06:50:21.417Z,49.80
2023-02-09T06:52:50.000Z,49.50
2023-02-09T06:55:19.194Z,44.70
2023-02-09T06:57:46.960Z,45.70
2023-02-09T07:00:15.239Z,46.50
2023-02-09T07:02:44.530Z,45.00
2023-02-09T07:05:13.421Z,40.70
2023-02-09T07:07:41.384Z,38.90
2023-02-09T07:10:10.109Z,40.30
2023-02-09T07:12:40.752Z,35.10
2023-02-09T07:15:08.998Z,38.60
2023-02-09T07:17:39.882Z,34.20
2023-02-09T07:20:09.546Z,32.80
2023-02-09T07:22:38.949Z,29.20
2023-02-09T07:25:07.752Z,28.90
2023-02-09T07:27:36.002Z,29.40
2023-02-09T07:30:04.698Z,29.70
2023-02-09T07:32:34.150Z,29.60
2023-02-09T07:35:02.463Z,29.20
2023-02-09T07:37:30.421Z,26.90
2023-02-09T07:39:59.183Z,28.20
2023-02-09T07:42:27.276Z,28.30
2023-02-09T07:45:01.417Z,30.50
2023-02-09T07:47:29.681Z,28.90
2023-02-09T07:49:58.203Z,27.30
2023-02-09T07:52:26.602Z,28.50
2023-02-09T07:54:54.001Z,28.00
2023-02-09T07:57:21.617Z,26.90
2023-02-09T07:59:50.277Z,26.40
2023-02-09T08:02:24.864Z,26.10
2023-02-09T08:04:53.333Z,25.10
2023-02-09T08:07:22.143Z,23.90
2023-02-09T08:09:51.421Z,17.70
2023-02-09T08:12:42.342Z,21.20
2023-02-09T08:15:13.065Z,21.80
2023-02-09T08:17:41.871Z,22.30
2023-02-09T08:20:17.664Z,20.70
2023-02-09T08:22:49.004Z,22.10
2023-02-09T08:25:19.567Z,23.00
2023-02-09T08:27:47.868Z,21.20
2023-02-09T08:30:20.086Z,19.70
2023-02-09T08:32:51.273Z,22.80
2023-02-09T08:35:20.168Z,23.40
2023-02-09T08:37:52.331Z,18.90
2023-02-09T08:40:20.639Z,22.10
2023-02-09T08:42:50.181Z,22.60
2023-02-09T08:45:18.948Z,22.50
2023-02-09T08:47:48.105Z,20.80
2023-02-09T08:50:19.885Z,20.70
2023-02-09T08:52:48.706Z,20.30
2023-02-09T08:55:18.268Z,18.60
2023-02-09T08:57:46.957Z,22.20
2023-02-09T09:00:23.747Z,21.30
2023-02-09T09:02:55.067Z,19.50
2023-02-09T09:05:24.448Z,18.20
2023-02-09T09:07:53.367Z,19.00
2023-02-09T09:10:24.728Z,19.80
2023-02-09T09:12:54.518Z,17.10
2023-02-09T09:15:24.039Z,19.20
2023-02-09T09:17:54.284Z,15.30
2023-02-09T09:20:22.920Z,18.50
2023-02-09T09:22:50.881Z,16.90
2023-02-09T09:25:19.957Z,16.00
2023-02-09T09:27:49.429Z,17.90
2023-02-09T09:30:17.144Z,18.60
2023-02-09T09:32:46.552Z,18.40
2023-02-09T09:35:14.888Z,18.90
2023-02-09T09:37:45.812Z,20.40
2023-02-09T09:40:27.704Z,20.60
2023-02-09T09:43:00.802Z,20.20
2023-02-09T09:45:29.998Z,19.00
2023-02-09T09:47:58.146Z,19.30
2023-02-09T09:50:30.571Z,18.30
2023-02-09T09:53:05.010Z,19.90
2023-02-09T09:55:32.940Z,19.70
2023-02-09T09:58:03.250Z,20.30
2023-02-09T10:00:41.442Z,20.90
2023-02-09T10:03:14.043Z,17.30
2023-02-09T10:05:42.451Z,17.30
2023-02-09T10:08:10.687Z,17.00
2023-02-09T10:11:01.625Z,15.20
2023-02-09T10:14:03.942Z,16.50
2023-02-09T10:16:40.144Z,17.00
2023-02-09T10:19:22.108Z,14.40
2023-02-09T10:21:51.157Z,15.40
2023-02-09T10:24:39.657Z,14.30
2023-02-09T10:27:26.310Z,13.90
2023-02-09T10:29:56.517Z,13.40
2023-02-09T10:32:29.168Z,13.40
2023-02-09T10:34:57.468Z,17.90
2023-02-09T10:37:37.789Z,15.70
2023-02-09T10:40:21.876Z,18.90
2023-02-09T10:43:02.924Z,14.40
2023-02-09T10:45:47.637Z,15.80
2023-02-09T10:48:19.459Z,12.10
2023-02-09T10:50:58.060Z,16.60
2023-02-09T10:53:32.253Z,22.30
2023-02-09T10:56:21.333Z,14.50
2023-02-09T10:59:00.896Z,12.20
2023-02-09T11:01:32.628Z,14.40
2023-02-09T11:04:01.446Z,15.40
2023-02-09T11:06:33.917Z,16.40
2023-02-09T11:09:16.400Z,14.20
2023-02-09T11:11:44.837Z,16.90
2023-02-09T11:14:14.330Z,13.60
2023-02-09T11:16:44.043Z,14.10
2023-02-09T11:19:22.243Z,14.10
2023-02-09T11:22:15.801Z,13.60
2023-02-09T11:24:58.542Z,15.30
2023-02-09T11:31:51.515Z,16.50
2023-02-09T11:34:37.274Z,15.30
2023-02-09T11:37:44.642Z,12.40
2023-02-09T11:40:26.530Z,9.90
2023-02-09T11:43:08.383Z,13.20
2023-02-09T11:45:43.455Z,13.70
2023-02-09T11:48:18.433Z,13.80
2023-02-09T11:51:08.675Z,13.30
2023-02-09T11:56:07.738Z,15.70
2023-02-09T11:58:47.167Z,13.50
2023-02-09T12:01:35.059Z,15.40
2023-02-09T12:04:26.188Z,15.80
2023-02-09T12:06:57.106Z,15.40
2023-02-09T12:09:45.945Z,14.50
2023-02-09T12:12:29.314Z,13.90
2023-02-09T12:15:21.026Z,16.70
2023-02-09T12:17:57.860Z,14.30
2023-02-09T12:20:37.272Z,13.40
2023-02-09T12:23:11.443Z,16.20
2023-02-09T12:25:51.559Z,19.60
2023-02-09T12:28:25.676Z,14.40
2023-02-09T12:30:58.329Z,14.50
2023-02-09T12:33:26.664Z,16.70
2023-02-09T12:36:10.901Z,14.30
2023-02-09T12:38:55.934Z,14.10
2023-02-09T12:41:41.101Z,16.30
2023-02-09T12:44:10.922Z,18.70
2023-02-09T12:46:53.063Z,17.20
2023-02-09T12:49:33.490Z,14.20
2023-02-09T12:55:00.323Z,20.50
2023-02-09T12:58:06.718Z,19.40
2023-02-09T13:00:40.532Z,15.60
2023-02-09T13:03:12.891Z,14.70
2023-02-09T13:05:41.588Z,14.60
2023-02-09T13:08:19.553Z,16.60
2023-02-09T13:11:13.631Z,15.30
2023-02-09T13:13:56.564Z,16.80
2023-02-09T13:16:24.199Z,20.20
2023-02-09T13:19:12.696Z,29.40
2023-02-09T13:22:01.704Z,21.00
2023-02-09T13:24:39.046Z,19.50
2023-02-09T13:27:18.899Z,18.20
2023-02-09T13:29:51.636Z,19.50
2023-02-09T13:32:51.299Z,19.30
2023-02-09T13:35:23.860Z,15.80
2023-02-09T13:37:58.148Z,16.10
2023-02-09T13:40:30.908Z,14.90
2023-02-09T13:43:11.585Z,19.20
2023-02-09T13:45:48.748Z,14.40
2023-02-09T13:48:31.251Z,13.10
2023-02-09T13:51:04.059Z,11.70
2023-02-09T13:53:33.776Z,14.20
2023-02-09T13:56:02.499Z,11.40
2023-02-09T13:58:35.342Z,11.60
2023-02-09T14:01:08.126Z,11.00
2023-02-09T14:03:46.929Z,10.60
2023-02-09T14:06:27.739Z,10.80
2023-02-09T14:08:58.960Z,10.80
2023-02-09T14:11:41.603Z,10.30
2023-02-09T14:14:53.219Z,11.20
2023-02-09T14:17:25.827Z,11.60
2023-02-09T14:19:55.907Z,10.10
2023-02-09T14:22:29.243Z,12.30
2023-02-09T14:24:58.676Z,15.60
2023-02-09T14:27:27.601Z,15.50
2023-02-09T14:29:55.747Z,14.00
2023-02-09T14:32:37.483Z,12.90
2023-02-09T14:35:23.150Z,12.80
2023-02-09T14:37:52.020Z,12.80
2023-02-09T14:40:29.502Z,13.60
2023-02-09T14:43:00.534Z,14.80
2023-02-09T14:45:39.142Z,14.20
2023-02-09T14:48:29.514Z,14.60
2023-02-09T14:51:01.633Z,12.60
2023-02-09T14:53:31.009Z,13.60
2023-02-09T14:55:59.203Z,13.40
2023-02-09T14:58:31.459Z,13.20
2023-02-09T15:01:00.448Z,13.00
2023-02-09T15:03:28.182Z,12.20
2023-02-09T15:06:00.789Z,13.50
2023-02-09T15:08:30.638Z,11.10
2023-02-09T15:11:24.165Z,12.20
2023-02-09T15:13:54.790Z,10.90
2023-02-09T15:16:22.468Z,9.30
2023-02-09T15:18:50.062Z,13.00
2023-02-09T15:21:18.343Z,14.20
2023-02-09T15:23:45.952Z,23.00
2023-02-09T15:26:16.501Z,18.60
2023-02-09T15:28:45.107Z,17.20
2023-02-09T15:31:16.394Z,17.40
2023-02-09T15:33:45.519Z,12.60
2023-02-09T15:36:16.621Z,16.50
2023-02-09T15:38:45.300Z,15.80
2023-02-09T15:41:34.399Z,15.90
2023-02-09T15:44:38.074Z,20.40
2023-02-09T15:47:24.309Z,22.60
2023-02-09T15:49:51.854Z,20.30
2023-02-09T15:52:19.266Z,24.80
2023-02-09T15:54:47.112Z,24.90
2023-02-09T15:57:15.604Z,25.70
2023-02-09T15:59:43.275Z,26.60
2023-02-09T16:02:12.946Z,24.20
2023-02-09T16:04:41.387Z,25.00
2023-02-09T16:07:12.332Z,22.10
2023-02-09T16:09:41.268Z,19.20
2023-02-09T16:12:11.374Z,15.80
2023-02-09T16:14:40.177Z,16.30
2023-02-09T16:17:08.026Z,17.30
2023-02-09T16:19:36.760Z,15.40
2023-02-09T16:22:06.133Z,16.00
2023-02-09T16:24:41.777Z,16.70
2023-02-09T16:27:28.241Z,16.90
2023-02-09T16:29:57.201Z,17.40
2023-02-09T16:32:28.857Z,16.80
2023-02-09T16:35:07.415Z,18.20
2023-02-09T16:37:44.949Z,16.70
2023-02-09T16:40:17.402Z,16.80
2023-02-09T16:42:47.703Z,17.30
2023-02-09T16:47:49.079Z,17.40
2023-02-09T16:50:33.958Z,17.40
2023-02-09T16:53:03.478Z,16.40
2023-02-09T16:55:33.470Z,15.20
2023-02-09T16:58:03.299Z,16.90
2023-02-09T17:00:33.285Z,15.40
2023-02-09T17:03:13.871Z,17.00
2023-02-09T17:05:44.146Z,20.40
2023-02-09T17:08:27.078Z,23.20
2023-02-09T17:10:55.948Z,26.40
2023-02-09T17:13:23.903Z,25.10
2023-02-09T17:15:53.349Z,22.90
2023-02-09T17:18:26.280Z,21.50
2023-02-09T17:20:55.920Z,19.90
2023-02-09T17:23:25.047Z,18.70
2023-02-09T17:25:54.870Z,20.10
2023-02-09T17:28:26.073Z,22.50
2023-02-09T17:30:57.198Z,21.90
2023-02-09T17:33:30.370Z,21.10
2023-02-09T17:36:25.111Z,21.30
2023-02-09T17:38:49.089Z,19.60
2023-02-09T17:41:34.028Z,19.80
2023-02-09T17:44:22.223Z,21.90
2023-02-09T17:46:54.418Z,20.50
2023-02-09T17:49:22.882Z,20.70
2023-02-09T17:51:51.237Z,20.20
2023-02-09T17:54:19.764Z,22.00
2023-02-09T17:56:47.141Z,22.80
2023-02-09T17:59:19.343Z,23.20
2023-02-09T18:01:49.269Z,22.80
2023-02-09T18:04:28.297Z,23.50
2023-02-09T18:06:58.088Z,26.10
2023-02-09T18:09:26.016Z,26.40
2023-02-09T18:12:01.201Z,30.70
2023-02-09T18:14:31.611Z,30.20
2023-02-09T18:17:01.149Z,27.50
2023-02-09T18:19:29.035Z,26.40
2023-02-09T18:22:02.471Z,29.70
2023-02-09T18:24:32.118Z,37.50
2023-02-09T18:27:00.236Z,32.80
2023-02-09T18:29:31.199Z,24.70
2023-02-09T18:31:59.614Z,21.40
2023-02-09T18:34:28.000Z,20.30
2023-02-09T18:36:57.500Z,19.90
2023-02-09T18:39:25.070Z,19.80
2023-02-09T18:41:55.754Z,18.70
2023-02-09T18:44:28.141Z,20.70
2023-02-09T18:46:56.491Z,20.90
2023-02-09T18:49:24.502Z,19.50
2023-02-09T18:51:51.980Z,18.70
2023-02-09T18:54:22.161Z,19.90
2023-02-09T18:56:55.529Z,19.70
2023-02-09T18:59:30.448Z,22.90
2023-02-09T19:02:05.034Z,20.60
2023-02-09T19:04:32.476Z,21.10
2023-02-09T19:07:09.022Z,24.50
2023-02-09T19:09:40.014Z,22.30
2023-02-09T19:12:14.347Z,22.60
2023-02-09T19:14:45.764Z,20.60
2023-02-09T19:17:16.317Z,25.20
2023-02-09T19:19:55.999Z,33.70
2023-02-09T19:22:28.103Z,38.70
2023-02-09T19:25:00.292Z,29.20
2023-02-09T19:27:29.838Z,26.80
2023-02-09T19:29:59.802Z,24.50
2023-02-09T19:32:27.543Z,26.80
2023-02-09T19:35:00.009Z,24.30
2023-02-09T19:37:27.287Z,22.40
2023-02-09T19:40:10.299Z,23.40
2023-02-09T19:42:43.483Z,23.80
2023-02-09T19:45:18.237Z,23.10
2023-02-09T19:47:45.485Z,24.70
2023-02-09T19:50:15.057Z,25.70
2023-02-09T19:52:45.328Z,29.40
2023-02-09T19:55:13.350Z,29.30
2023-02-09T19:57:42.238Z,24.30
2023-02-09T20:00:14.513Z,26.50
2023-02-09T20:02:42.789Z,31.20
2023-02-09T20:05:10.497Z,36.10
2023-02-09T20:07:38.800Z,28.70
2023-02-09T20:10:08.821Z,31.30
2023-02-09T20:12:39.626Z,34.60
2023-02-09T20:15:15.069Z,36.20
2023-02-09T20:17:44.217Z,29.30
2023-02-09T20:20:15.901Z,32.20
2023-02-09T20:22:48.229Z,45.70
2023-02-09T20:25:15.873Z,56.60
2023-02-09T20:27:44.430Z,61.30
2023-02-09T20:30:13.041Z,78.40
2023-02-09T20:32:42.281Z,61.00
2023-02-09T20:35:11.263Z,74.00
2023-02-09T20:37:38.880Z,67.90
2023-02-09T20:40:11.230Z,36.20
2023-02-09T20:42:59.074Z,43.20
2023-02-09T20:45:46.161Z,49.50
2023-02-09T20:48:14.315Z,40.80
2023-02-09T20:50:45.057Z,39.80
2023-02-09T20:53:13.414Z,35.80
2023-02-09T20:55:41.553Z,51.90
2023-02-09T20:58:11.764Z,60.10
2023-02-09T21:00:40.938Z,36.10
2023-02-09T21:03:10.234Z,38.40
2023-02-09T21:05:37.854Z,36.90
2023-02-09T21:08:07.428Z,39.70
2023-02-09T21:10:38.047Z,34.10
2023-02-09T21:13:08.989Z,43.50
2023-02-09T21:15:41.298Z,40.20
2023-02-09T21:18:08.939Z,45.60
2023-02-09T21:20:36.722Z,42.60
2023-02-09T21:23:05.528Z,43.00
2023-02-09T21:25:35.428Z,35.90
2023-02-09T21:28:03.911Z,47.60
2023-02-09T21:30:31.381Z,48.70
2023-02-09T21:33:01.848Z,46.30
2023-02-09T21:35:29.506Z,44.70
2023-02-09T21:37:56.877Z,37.20
2023-02-09T21:40:25.496Z,35.20
2023-02-09T21:42:52.828Z,31.80
2023-02-09T21:45:20.535Z,33.30
2023-02-09T21:47:48.293Z,36.80
2023-02-09T21:50:15.866Z,36.00
2023-02-09T21:52:43.501Z,34.30
2023-02-09T21:55:11.635Z,35.10
2023-02-09T21:57:39.424Z,33.60
2023-02-09T22:00:08.902Z,31.10
2023-02-09T22:02:36.609Z,30.20
2023-02-09T22:05:04.326Z,29.60
2023-02-09T22:07:32.611Z,31.60
2023-02-09T22:10:01.851Z,30.50
2023-02-09T22:12:29.566Z,31.20
2023-02-09T22:14:57.142Z,33.30
2023-02-09T22:17:25.732Z,34.00
2023-02-09T22:19:53.333Z,31.50
2023-02-09T22:22:21.024Z,32.80
2023-02-09T22:24:49.646Z,33.60
2023-02-09T22:27:22.294Z,32.20
2023-02-09T22:29:51.177Z,30.20
2023-02-09T22:32:20.184Z,32.90
2023-02-09T22:34:49.201Z,32.10
2023-02-09T22:37:16.557Z,31.60
2023-02-09T22:39:45.319Z,31.90
2023-02-09T22:42:14.042Z,31.30
2023-02-09T22:44:41.937Z,31.10
2023-02-09T22:47:09.428Z,31.60
2023-02-09T22:49:39.201Z,30.80
2023-02-09T22:52:07.611Z,32.70
2023-02-09T22:54:36.628Z,33.40
2023-02-09T22:57:05.294Z,33.00
2023-02-09T22:59:36.220Z,32.90
2023-02-09T23:02:04.652Z,31.40
2023-02-09T23:04:32.979Z,30.30
2023-02-09T23:07:00.709Z,31.30
2023-02-09T23:09:28.373Z,32.50
2023-02-09T23:11:55.635Z,32.40
2023-02-09T23:14:23.168Z,29.80
2023-02-09T23:16:50.586Z,32.80
2023-02-09T23:19:20.154Z,29.90
2023-02-09T23:21:49.213Z,31.60
2023-02-09T23:24:21.141Z,32.00
2023-02-09T23:26:48.991Z,32.00
2023-02-09T23:29:17.219Z,31.50
2023-02-09T23:31:45.862Z,31.40
2023-02-09T23:34:14.916Z,31.20
2023-02-09T23:36:42.802Z,32.30
2023-02-09T23:39:13.277Z,35.50
2023-02-09T23:41:41.261Z,39.00
2023-02-09T23:44:09.107Z,39.10
2023-02-09T23:46:36.793Z,44.30
2023-02-09T23:49:04.346Z,45.70
2023-02-09T23:51:35.462Z,45.80
2023-02-09T23:54:04.976Z,37.90
2023-02-09T23:56:37.429Z,44.70
2023-02-09T23:59:06.994Z,42.00
